PWSweather.com
Personal Weather Stations
Station Observations
KCACHEST1
Chester, CA 96020

Chester, CA 96020

Lat: 40.2965, Lon: -121.228088

Elevation: 4530

Station Type: Davis Vantage Pro

http://www.chesterweathercenter.com/

Latest ConditionsUpdated 11:30:10 PM PDT Sunday, Aug 2, 2015
Currently Today's Max Today's Min Today's Average
Temperature 60.5°F15.8°C 76.7°F24.8°C 58.9°F14.9°C 66.9°F19.4°C
Dew Point 51.8°F11.0°C 60.9°F16.1°C 47.4°F8.6°C 55.5°F13.1°C
Winds Calm Calm Calm NNWCalm NNW - Calm Calm
Wind Gusts -- 3.0 mph4.8 kmh - -
Humidity 73% 90% 36% 70%
Pressure 29.69 in1005.4 mb 29.73 in1006.8 mb 29.57 in1001.4 mb -
Hour Temp Dew Point Humidity Winds Wind Gusts Pressure Precip Precip Rate Daily Precip Total
11:30 PM 60.5°F15.8°C 51.8°F11.0°C 73% Calm Calm -- 29.69 in1005.4 mb - 0.00 in0.0 mm 0.02 in0.5 mm
11:20 PM 61.0°F16.1°C 51.5°F10.8°C 71% Calm Calm -- 29.69 in1005.4 mb - 0.00 in0.0 mm 0.02 in0.5 mm
11:10 PM 61.6°F16.4°C 52.1°F11.2°C 71% Calm Calm -- 29.68 in1005.1 mb - 0.00 in0.0 mm 0.02 in0.5 mm
11:00 PM 62.2°F16.8°C 51.9°F11.1°C 69% Calm Calm -- 29.68 in1005.1 mb - 0.00 in0.0 mm 0.02 in0.5 mm
10:50 PM 62.7°F17.1°C 52.8°F11.6°C 70% Calm Calm -- 29.67 in1004.7 mb - 0.00 in0.0 mm 0.02 in0.5 mm
10:40 PM 63.4°F17.4°C 52.7°F11.5°C 68% Calm Calm -- 29.67 in1004.7 mb - 0.00 in0.0 mm 0.02 in0.5 mm
10:30 PM 64.0°F17.8°C 52.9°F11.6°C 67% Calm Calm -- 29.68 in1005.1 mb - 0.00 in0.0 mm 0.02 in0.5 mm
10:20 PM 64.9°F18.3°C 53.3°F11.8°C 66% Calm Calm -- 29.67 in1004.7 mb - 0.00 in0.0 mm 0.02 in0.5 mm
10:10 PM 65.7°F18.7°C 53.7°F12.1°C 65% Calm Calm -- 29.67 in1004.7 mb - 0.00 in0.0 mm 0.02 in0.5 mm
10:00 PM 66.5°F19.2°C 53.1°F11.7°C 62% Calm Calm -- 29.67 in1004.7 mb - 0.00 in0.0 mm 0.02 in0.5 mm
09:50 PM 67.3°F19.6°C 53.4°F11.9°C 61% Calm Calm -- 29.67 in1004.7 mb - 0.00 in0.0 mm 0.02 in0.5 mm
09:40 PM 68.0°F20.0°C 52.2°F11.2°C 57% Calm Calm -- 29.67 in1004.7 mb - 0.00 in0.0 mm 0.02 in0.5 mm
09:30 PM 68.4°F20.2°C 52.1°F11.2°C 56% Calm Calm -- 29.66 in1004.4 mb - 0.00 in0.0 mm 0.02 in0.5 mm
09:20 PM 68.9°F20.5°C 52.0°F11.1°C 55% Calm Calm -- 29.65 in1004.1 mb - 0.00 in0.0 mm 0.02 in0.5 mm
09:10 PM 69.2°F20.7°C 52.4°F11.3°C 55% Calm Calm -- 29.64 in1003.7 mb - 0.00 in0.0 mm 0.02 in0.5 mm
09:00 PM 69.6°F20.9°C 51.7°F10.9°C 53% Calm Calm -- 29.64 in1003.7 mb - 0.00 in0.0 mm 0.02 in0.5 mm
08:50 PM 69.9°F21.1°C 50.4°F10.2°C 50% Calm Calm -- 29.64 in1003.7 mb - 0.00 in0.0 mm 0.02 in0.5 mm
08:40 PM 70.4°F21.3°C 51.9°F11.1°C 52% Calm Calm -- 29.64 in1003.7 mb - 0.00 in0.0 mm 0.02 in0.5 mm
08:30 PM 70.9°F21.6°C 51.9°F11.1°C 51% Calm Calm -- 29.63 in1003.4 mb - 0.00 in0.0 mm 0.02 in0.5 mm
08:20 PM 71.5°F21.9°C 51.9°F11.1°C 50% Calm Calm -- 29.63 in1003.4 mb - 0.00 in0.0 mm 0.02 in0.5 mm
08:10 PM 71.9°F22.2°C 51.7°F10.9°C 49% Calm Calm -- 29.63 in1003.4 mb - 0.00 in0.0 mm 0.02 in0.5 mm
08:00 PM 72.2°F22.3°C 51.4°F10.8°C 48% Calm Calm -- 29.64 in1003.7 mb - 0.00 in0.0 mm 0.02 in0.5 mm
07:50 PM 72.7°F22.6°C 51.9°F11.1°C 48% Calm Calm -- 29.64 in1003.7 mb - 0.00 in0.0 mm 0.02 in0.5 mm
07:40 PM 73.3°F22.9°C 52.4°F11.3°C 48% Calm Calm -- 29.63 in1003.4 mb - 0.00 in0.0 mm 0.02 in0.5 mm
07:30 PM 74.2°F23.4°C 52.7°F11.5°C 47% Calm Calm -- 29.64 in1003.7 mb - 0.00 in0.0 mm 0.02 in0.5 mm
07:20 PM 75.1°F23.9°C 52.9°F11.6°C 46% Calm Calm -- 29.63 in1003.4 mb - 0.00 in0.0 mm 0.02 in0.5 mm
07:10 PM 75.5°F24.2°C 52.1°F11.2°C 44% Calm Calm -- 29.63 in1003.4 mb - 0.00 in0.0 mm 0.02 in0.5 mm
07:00 PM 75.8°F24.3°C 51.7°F10.9°C 43% Calm Calm -- 29.63 in1003.4 mb - 0.00 in0.0 mm 0.02 in0.5 mm
06:50 PM 76.1°F24.5°C 52.0°F11.1°C 43% Calm Calm -- 29.63 in1003.4 mb - 0.00 in0.0 mm 0.02 in0.5 mm
06:40 PM 76.3°F24.6°C 49.5°F9.7°C 39% Calm Calm -- 29.62 in1003.0 mb - 0.00 in0.0 mm 0.02 in0.5 mm
06:30 PM 76.5°F24.7°C 49.0°F9.4°C 38% Calm Calm -- 29.62 in1003.0 mb - 0.00 in0.0 mm 0.02 in0.5 mm
06:20 PM 76.5°F24.7°C 50.4°F10.2°C 40% Calm Calm -- 29.62 in1003.0 mb - 0.00 in0.0 mm 0.02 in0.5 mm
06:10 PM 76.3°F24.6°C 47.4°F8.6°C 36% Calm Calm 3.0 mph4.8 kmh 29.63 in1003.4 mb - 0.00 in0.0 mm 0.02 in0.5 mm
06:00 PM 76.1°F24.5°C 47.9°F8.8°C 37% Calm Calm 1.0 mph1.6 kmh 29.64 in1003.7 mb - 0.00 in0.0 mm 0.02 in0.5 mm
05:50 PM 76.0°F24.4°C 47.8°F8.8°C 37% Calm Calm 1.0 mph1.6 kmh 29.64 in1003.7 mb - 0.00 in0.0 mm 0.02 in0.5 mm
05:40 PM 76.0°F24.4°C 48.6°F9.2°C 38% Calm Calm -- 29.64 in1003.7 mb - 0.00 in0.0 mm 0.02 in0.5 mm
05:30 PM 75.8°F24.3°C 52.4°F11.3°C 44% Calm Calm -- 29.64 in1003.7 mb - 0.00 in0.0 mm 0.02 in0.5 mm
05:20 PM 76.0°F24.4°C 51.9°F11.1°C 43% Calm Calm 3.0 mph4.8 kmh 29.65 in1004.1 mb - 0.00 in0.0 mm 0.02 in0.5 mm
05:10 PM 76.2°F24.6°C 53.3°F11.8°C 45% Calm Calm 3.0 mph4.8 kmh 29.64 in1003.7 mb - 0.00 in0.0 mm 0.02 in0.5 mm
05:00 PM 76.3°F24.6°C 54.0°F12.2°C 46% Calm Calm -- 29.64 in1003.7 mb - 0.00 in0.0 mm 0.02 in0.5 mm
04:50 PM 76.2°F24.6°C 54.5°F12.5°C 47% Calm Calm -- 29.65 in1004.1 mb - 0.00 in0.0 mm 0.02 in0.5 mm
04:40 PM 76.4°F24.7°C 54.1°F12.3°C 46% Calm Calm 1.0 mph1.6 kmh 29.65 in1004.1 mb - 0.00 in0.0 mm 0.02 in0.5 mm
04:30 PM 76.7°F24.8°C 54.4°F12.4°C 46% Calm Calm 3.0 mph4.8 kmh 29.65 in1004.1 mb - 0.00 in0.0 mm 0.02 in0.5 mm
04:20 PM 76.7°F24.8°C 54.4°F12.4°C 46% Calm Calm -- 29.66 in1004.4 mb - 0.00 in0.0 mm 0.02 in0.5 mm
04:10 PM 76.7°F24.8°C 54.4°F12.4°C 46% Calm Calm 1.0 mph1.6 kmh 29.66 in1004.4 mb - 0.00 in0.0 mm 0.02 in0.5 mm
04:00 PM 76.5°F24.7°C 53.6°F12.0°C 45% Calm Calm -- 29.66 in1004.4 mb - 0.00 in0.0 mm 0.02 in0.5 mm
03:50 PM 76.4°F24.7°C 52.9°F11.6°C 44% Calm Calm -- 29.67 in1004.7 mb - 0.00 in0.0 mm 0.02 in0.5 mm
03:40 PM 76.3°F24.6°C 52.2°F11.2°C 43% Calm Calm 3.0 mph4.8 kmh 29.67 in1004.7 mb - 0.00 in0.0 mm 0.02 in0.5 mm
03:30 PM 76.1°F24.5°C 53.8°F12.1°C 46% Calm Calm -- 29.68 in1005.1 mb - 0.00 in0.0 mm 0.02 in0.5 mm
03:20 PM 75.5°F24.2°C 54.4°F12.4°C 48% Calm Calm -- 29.68 in1005.1 mb - 0.00 in0.0 mm 0.02 in0.5 mm
03:10 PM 74.7°F23.7°C 53.7°F12.1°C 48% Calm Calm -- 29.69 in1005.4 mb - 0.00 in0.0 mm 0.02 in0.5 mm
03:00 PM 73.9°F23.3°C 56.2°F13.4°C 54% Calm Calm -- 29.68 in1005.1 mb - 0.00 in0.0 mm 0.02 in0.5 mm
02:50 PM 73.2°F22.9°C 55.6°F13.1°C 54% Calm Calm -- 29.70 in1005.8 mb - 0.00 in0.0 mm 0.02 in0.5 mm
02:40 PM 72.3°F22.4°C 54.2°F12.3°C 53% Calm Calm -- 29.70 in1005.8 mb - 0.00 in0.0 mm 0.02 in0.5 mm
02:30 PM 71.6°F22.0°C 56.0°F13.3°C 58% Calm Calm -- 29.70 in1005.8 mb - 0.00 in0.0 mm 0.02 in0.5 mm
02:20 PM 71.1°F21.7°C 56.0°F13.3°C 59% Calm Calm -- 29.71 in1006.1 mb - 0.00 in0.0 mm 0.02 in0.5 mm
02:10 PM 71.1°F21.7°C 57.0°F13.9°C 61% Calm Calm -- 29.71 in1006.1 mb - 0.00 in0.0 mm 0.02 in0.5 mm
02:00 PM 70.9°F21.6°C 57.2°F14.0°C 62% Calm Calm -- 29.71 in1006.1 mb - 0.00 in0.0 mm 0.02 in0.5 mm
01:50 PM 70.8°F21.6°C 57.6°F14.2°C 63% Calm Calm -- 29.71 in1006.1 mb - 0.00 in0.0 mm 0.02 in0.5 mm
01:40 PM 70.8°F21.6°C 58.4°F14.7°C 65% Calm Calm -- 29.72 in1006.4 mb - 0.00 in0.0 mm 0.02 in0.5 mm
01:30 PM 70.9°F21.6°C 59.8°F15.4°C 68% Calm Calm 1.0 mph1.6 kmh 29.70 in1005.8 mb - 0.00 in0.0 mm 0.02 in0.5 mm
01:20 PM 71.2°F21.8°C 60.9°F16.1°C 70% Calm Calm -- 29.71 in1006.1 mb - 0.00 in0.0 mm 0.02 in0.5 mm
01:10 PM 71.3°F21.8°C 59.7°F15.4°C 67% Calm Calm -- 29.72 in1006.4 mb - 0.00 in0.0 mm 0.02 in0.5 mm
01:00 PM 71.1°F21.7°C 59.6°F15.3°C 67% Calm Calm -- 29.72 in1006.4 mb - 0.00 in0.0 mm 0.02 in0.5 mm
12:50 PM 70.8°F21.6°C 58.5°F14.7°C 65% Calm Calm -- 29.73 in1006.8 mb - 0.00 in0.0 mm 0.02 in0.5 mm
12:40 PM 70.8°F21.6°C 58.9°F14.9°C 66% Calm Calm -- 29.73 in1006.8 mb - 0.00 in0.0 mm 0.02 in0.5 mm
12:30 PM 70.8°F21.6°C 59.3°F15.2°C 67% Calm Calm -- 29.73 in1006.8 mb - 0.00 in0.0 mm 0.02 in0.5 mm
12:20 PM 70.6°F21.4°C 59.1°F15.1°C 67% Calm Calm -- 29.73 in1006.8 mb - 0.00 in0.0 mm 0.02 in0.5 mm
12:10 PM 70.4°F21.3°C 58.9°F14.9°C 67% Calm Calm -- 29.73 in1006.8 mb - 0.00 in0.0 mm 0.02 in0.5 mm
12:00 PM 70.4°F21.3°C 58.1°F14.5°C 65% Calm Calm -- 29.73 in1006.8 mb - 0.00 in0.0 mm 0.02 in0.5 mm
11:50 AM 70.3°F21.3°C 57.1°F13.9°C 63% Calm Calm -- 29.73 in1006.8 mb - 0.00 in0.0 mm 0.02 in0.5 mm
11:40 AM 70.3°F21.3°C 57.5°F14.2°C 64% Calm Calm -- 29.73 in1006.8 mb - 0.00 in0.0 mm 0.02 in0.5 mm
11:30 AM 70.1°F21.2°C 56.9°F13.8°C 63% Calm Calm -- 29.73 in1006.8 mb - 0.00 in0.0 mm 0.02 in0.5 mm
11:20 AM 69.8°F21.0°C 56.2°F13.4°C 62% Calm Calm -- 29.73 in1006.8 mb - 0.00 in0.0 mm 0.02 in0.5 mm
11:10 AM 69.6°F20.9°C 56.9°F13.8°C 64% Calm Calm -- 29.73 in1006.8 mb - 0.00 in0.0 mm 0.02 in0.5 mm
11:00 AM 69.1°F20.6°C 56.9°F13.8°C 65% Calm Calm -- 29.72 in1006.4 mb - 0.00 in0.0 mm 0.02 in0.5 mm
10:50 AM 68.4°F20.2°C 57.8°F14.3°C 69% Calm Calm -- 29.73 in1006.8 mb - 0.00 in0.0 mm 0.02 in0.5 mm
10:40 AM 67.8°F19.9°C 58.4°F14.7°C 72% Calm Calm -- 29.72 in1006.4 mb - 0.00 in0.0 mm 0.02 in0.5 mm
10:30 AM 67.5°F19.7°C 60.4°F15.8°C 78% Calm Calm -- 29.72 in1006.4 mb - 0.00 in0.0 mm 0.02 in0.5 mm
10:20 AM 67.3°F19.6°C 60.6°F15.9°C 79% Calm Calm -- 29.71 in1006.1 mb - 0.00 in0.0 mm 0.02 in0.5 mm
10:10 AM 67.1°F19.5°C 60.7°F15.9°C 80% Calm Calm -- 29.72 in1006.4 mb - 0.00 in0.0 mm 0.02 in0.5 mm
10:00 AM 67.1°F19.5°C 60.3°F15.7°C 79% Calm Calm -- 29.71 in1006.1 mb - 0.00 in0.0 mm 0.02 in0.5 mm
09:50 AM 66.9°F19.4°C 60.2°F15.7°C 79% Calm Calm -- 29.71 in1006.1 mb - 0.00 in0.0 mm 0.02 in0.5 mm
09:40 AM 66.8°F19.3°C 60.0°F15.6°C 79% Calm Calm -- 29.72 in1006.4 mb - 0.00 in0.0 mm 0.02 in0.5 mm
09:30 AM 66.4°F19.1°C 59.7°F15.4°C 79% Calm Calm -- 29.72 in1006.4 mb - 0.00 in0.0 mm 0.02 in0.5 mm
09:20 AM 66.2°F19.0°C 60.2°F15.7°C 81% Calm Calm -- 29.72 in1006.4 mb - 0.00 in0.0 mm 0.02 in0.5 mm
09:10 AM 65.9°F18.8°C 59.9°F15.5°C 81% Calm Calm -- 29.68 in1005.1 mb - 0.00 in0.0 mm 0.02 in0.5 mm
09:00 AM 65.6°F18.7°C 60.3°F15.7°C 83% Calm Calm -- 29.69 in1005.4 mb - 0.00 in0.0 mm 0.02 in0.5 mm
08:50 AM 65.3°F18.5°C 60.3°F15.7°C 84% Calm Calm -- 29.69 in1005.4 mb - 0.00 in0.0 mm 0.02 in0.5 mm
08:40 AM 64.8°F18.2°C 60.8°F16.0°C 87% Calm Calm -- 29.69 in1005.4 mb - 0.00 in0.0 mm 0.02 in0.5 mm
08:30 AM 64.2°F17.9°C 60.3°F15.7°C 87% Calm Calm -- 29.69 in1005.4 mb - 0.00 in0.0 mm 0.02 in0.5 mm
08:20 AM 63.6°F17.6°C 60.0°F15.6°C 88% Calm Calm -- 29.70 in1005.8 mb - 0.00 in0.0 mm 0.02 in0.5 mm
08:10 AM 62.7°F17.1°C 59.1°F15.1°C 88% Calm Calm -- 29.69 in1005.4 mb - 0.00 in0.0 mm 0.02 in0.5 mm
08:00 AM 62.1°F16.7°C 58.5°F14.7°C 88% Calm Calm -- 29.65 in1004.1 mb - 0.00 in0.0 mm 0.02 in0.5 mm
07:50 AM 61.4°F16.3°C 58.2°F14.6°C 89% Calm Calm -- 29.66 in1004.4 mb - 0.00 in0.0 mm 0.02 in0.5 mm
07:40 AM 60.9°F16.1°C 57.6°F14.2°C 89% Calm Calm -- 29.65 in1004.1 mb - 0.00 in0.0 mm 0.02 in0.5 mm
07:30 AM 60.3°F15.7°C 57.0°F13.9°C 89% Calm Calm -- 29.65 in1004.1 mb - 0.00 in0.0 mm 0.02 in0.5 mm
07:20 AM 59.9°F15.5°C 56.6°F13.7°C 89% Calm Calm -- 29.65 in1004.1 mb - 0.00 in0.0 mm 0.02 in0.5 mm
07:10 AM 59.6°F15.3°C 56.4°F13.6°C 89% Calm Calm -- 29.65 in1004.1 mb - 0.00 in0.0 mm 0.02 in0.5 mm
07:00 AM 59.5°F15.3°C 56.3°F13.5°C 89% Calm Calm -- 29.65 in1004.1 mb - 0.00 in0.0 mm 0.02 in0.5 mm
06:50 AM 59.3°F15.2°C 56.0°F13.3°C 89% Calm Calm -- 29.65 in1004.1 mb - 0.00 in0.0 mm 0.02 in0.5 mm
06:40 AM 59.0°F15.0°C 55.8°F13.2°C 89% Calm Calm -- 29.65 in1004.1 mb - 0.00 in0.0 mm 0.02 in0.5 mm
06:30 AM 58.9°F14.9°C 55.7°F13.2°C 89% Calm Calm -- 29.65 in1004.1 mb - 0.00 in0.0 mm 0.02 in0.5 mm
06:20 AM 59.0°F15.0°C 55.8°F13.2°C 89% Calm Calm -- 29.65 in1004.1 mb - 0.00 in0.0 mm 0.02 in0.5 mm
06:10 AM 59.0°F15.0°C 55.8°F13.2°C 89% Calm Calm -- 29.64 in1003.7 mb - 0.00 in0.0 mm 0.02 in0.5 mm
06:00 AM 59.1°F15.1°C 55.8°F13.2°C 89% Calm Calm -- 29.62 in1003.0 mb - 0.00 in0.0 mm 0.02 in0.5 mm
05:50 AM 59.2°F15.1°C 56.0°F13.3°C 89% Calm Calm -- 29.62 in1003.0 mb - 0.00 in0.0 mm 0.02 in0.5 mm
05:40 AM 59.3°F15.2°C 56.1°F13.4°C 89% Calm Calm -- 29.62 in1003.0 mb - 0.00 in0.0 mm 0.02 in0.5 mm
05:30 AM 59.5°F15.3°C 56.6°F13.7°C 90% Calm Calm -- 29.62 in1003.0 mb - 0.00 in0.0 mm 0.02 in0.5 mm
05:20 AM 59.6°F15.3°C 56.7°F13.7°C 90% Calm Calm -- 29.61 in1002.7 mb - 0.00 in0.0 mm 0.02 in0.5 mm
05:10 AM 59.8°F15.4°C 56.9°F13.8°C 90% Calm Calm -- 29.61 in1002.7 mb - 0.00 in0.0 mm 0.02 in0.5 mm
05:00 AM 59.8°F15.4°C 56.9°F13.8°C 90% Calm Calm -- 29.58 in1001.7 mb - 0.00 in0.0 mm 0.02 in0.5 mm
04:50 AM 59.6°F15.3°C 56.7°F13.7°C 90% Calm Calm -- 29.58 in1001.7 mb - 0.00 in0.0 mm 0.02 in0.5 mm
04:40 AM 59.6°F15.3°C 56.7°F13.7°C 90% Calm Calm -- 29.57 in1001.4 mb - 0.00 in0.0 mm 0.02 in0.5 mm
04:30 AM 59.5°F15.3°C 56.6°F13.7°C 90% Calm Calm -- 29.57 in1001.4 mb - 0.00 in0.0 mm 0.02 in0.5 mm
04:20 AM 59.3°F15.2°C 56.1°F13.4°C 89% Calm Calm -- 29.57 in1001.4 mb - 0.00 in0.0 mm 0.02 in0.5 mm
04:10 AM 59.3°F15.2°C 56.4°F13.6°C 90% Calm Calm -- 29.57 in1001.4 mb - 0.00 in0.0 mm 0.02 in0.5 mm
04:00 AM 59.0°F15.0°C 55.8°F13.2°C 89% Calm Calm -- 29.59 in1002.0 mb - 0.00 in0.0 mm 0.02 in0.5 mm
03:50 AM 58.9°F14.9°C 55.7°F13.2°C 89% Calm Calm -- 29.59 in1002.0 mb - 0.00 in0.0 mm 0.02 in0.5 mm
03:40 AM 58.9°F14.9°C 55.7°F13.2°C 89% Calm Calm -- 29.59 in1002.0 mb - 0.00 in0.0 mm 0.02 in0.5 mm
03:30 AM 59.0°F15.0°C 55.8°F13.2°C 89% Calm Calm -- 29.61 in1002.7 mb - 0.00 in0.0 mm 0.02 in0.5 mm
03:20 AM 59.2°F15.1°C 55.9°F13.3°C 89% Calm Calm -- 29.61 in1002.7 mb - 0.00 in0.0 mm 0.02 in0.5 mm
03:10 AM 59.2°F15.1°C 56.0°F13.3°C 89% Calm Calm -- 29.63 in1003.4 mb - 0.00 in0.0 mm 0.02 in0.5 mm
03:00 AM 59.5°F15.3°C 56.3°F13.5°C 89% Calm Calm -- 29.64 in1003.7 mb - 0.00 in0.0 mm 0.02 in0.5 mm
02:50 AM 59.5°F15.3°C 56.3°F13.5°C 89% Calm Calm -- 29.65 in1004.1 mb - 0.00 in0.0 mm 0.02 in0.5 mm
02:40 AM 59.5°F15.3°C 56.3°F13.5°C 89% Calm Calm -- 29.65 in1004.1 mb - 0.00 in0.0 mm 0.02 in0.5 mm
02:30 AM 59.5°F15.3°C 55.9°F13.3°C 88% Calm Calm -- 29.65 in1004.1 mb - 0.00 in0.0 mm 0.02 in0.5 mm
02:20 AM 59.6°F15.3°C 56.0°F13.3°C 88% Calm Calm -- 29.66 in1004.4 mb - 0.00 in0.0 mm 0.02 in0.5 mm
02:10 AM 59.8°F15.4°C 56.2°F13.4°C 88% Calm Calm -- 29.68 in1005.1 mb - 0.00 in0.0 mm 0.02 in0.5 mm
02:00 AM 59.8°F15.4°C 56.2°F13.4°C 88% Calm Calm -- 29.68 in1005.1 mb - 0.00 in0.0 mm 0.02 in0.5 mm
01:50 AM 59.8°F15.4°C 56.2°F13.4°C 88% Calm Calm -- 29.68 in1005.1 mb - 0.00 in0.0 mm 0.02 in0.5 mm
01:40 AM 60.0°F15.6°C 56.4°F13.6°C 88% Calm Calm -- 29.66 in1004.4 mb - 0.00 in0.0 mm 0.02 in0.5 mm
01:30 AM 60.1°F15.6°C 56.5°F13.6°C 88% Calm Calm -- 29.66 in1004.4 mb - 0.01 in0.3 mm 0.02 in0.5 mm
01:20 AM 60.2°F15.7°C 56.6°F13.7°C 88% Calm Calm -- 29.66 in1004.4 mb - 0.01 in0.3 mm 0.01 in0.3 mm
01:10 AM 60.1°F15.6°C 56.5°F13.6°C 88% Calm Calm -- 29.65 in1004.1 mb - 0.00 in0.0 mm 0.00 in0.0 mm
01:00 AM 60.4°F15.8°C 56.8°F13.8°C 88% Calm Calm -- 29.64 in1003.7 mb - 0.00 in0.0 mm 0.00 in0.0 mm
12:50 AM 60.4°F15.8°C 56.8°F13.8°C 88% Calm Calm -- 29.64 in1003.7 mb - 0.00 in0.0 mm 0.00 in0.0 mm
12:40 AM 60.2°F15.7°C 56.6°F13.7°C 88% Calm Calm -- 29.64 in1003.7 mb - 0.00 in0.0 mm 0.00 in0.0 mm
12:30 AM 60.4°F15.8°C 56.8°F13.8°C 88% Calm Calm -- 29.62 in1003.0 mb - 0.00 in0.0 mm 0.00 in0.0 mm
12:20 AM 60.6°F15.9°C 57.0°F13.9°C 88% Calm Calm -- 29.61 in1002.7 mb - 0.00 in0.0 mm 0.00 in0.0 mm
12:10 AM 60.9°F16.1°C 57.3°F14.1°C 88% Calm Calm -- 29.60 in1002.4 mb - 0.00 in0.0 mm 0.00 in0.0 mm
12:00 AM 60.7°F15.9°C 57.1°F13.9°C 88% Calm Calm 1.0 mph1.6 kmh 29.64 in1003.7 mb - 0.00 in0.0 mm 0.00 in0.0 mm